Terminal Aerodrome Forecast
Issued by NWS

Home | Current Version | Previous Version | Text Only | Print | Product List | Glossary On
Versions: 1 2 3 4 5 6 7 8 9 10 11 12 13 14 15 16 17 18 19 20 21 22 23 24 25
000
FTUS41 KOKX 280535
TAFSWF
TAF
KSWF 280535Z 2806/2912 33015KT P6SM BKN050
     FM281200 36019G28KT P6SM SCT060 SCT250
     FM282100 35014G21KT P6SM SCT060
     FM282300 31010KT P6SM SKC
     FM290400 30005KT P6SM SKC
      AMD NOT SKED=

USA.gov is the U.S. government's official web portal to all federal, state and local government web resources and services.